KRNT - Renton
Updated: Thu, 21-Sep-2017 6:53am PDT
Light rain, Overcast
Light rain, Overcast
 Wind from SSE
Wind: SSE 3 mph , 6 km/h
Temperature: 52°F , 11°C
Dew Point: 50°F , 10°C
Humidity: 94%
Barometer: 29.90 inHg , 1012.5 hPa
Visibility: 10 miles , 16 km
Cloud details: 2200 ft
5000 ft
2017/09/21 13:53 KRNT 211353Z 15003KT 10SM -RA FEW022 OVC050 11/10 A2990 RMK AO2 RAE23B50 SLP129 P0000 T01060100
KBFI - Seattle-Boeing
Updated: Thu, 21-Sep-2017 6:53am PDT

 Wind from SE
Wind: SE 6 mph , 9 km/h
Temperature: 52°F , 11°C
Dew Point: 50°F , 10°C
Humidity: 94%
Barometer: 29.90 inHg , 1012.5 hPa
Visibility: 10 miles , 16 km
Cloud details: 1900 ft
2017/09/21 13:53 KBFI 211353Z 14005KT 10SM OVC019 11/10 A2990 RMK AO2 RAE1256 SLP124 P0000 T01060100
 
KSEA - Seattle
Updated: Thu, 21-Sep-2017 6:53am PDT

 Wind from S
Wind: S 6 mph , 9 km/h
Temperature: 50°F , 10°C
Wind Chill: 48°F , 9°C
Dew Point: 48°F , 9°C
Humidity: 94%
Barometer: 29.90 inHg , 1012.5 hPa
Visibility: 10 miles , 16 km
Cloud details: 700 ft
1400 ft
4900 ft
2017/09/21 13:53 KSEA 211353Z 19005KT 10SM FEW007 SCT014 OVC049 10/09 A2990 RMK AO2 RAE23 SLP130 P0001 T01000094 $
KSMP - Stampede Pass
Updated: Thu, 21-Sep-2017 6:56am PDT
Light rain, Fog, Overcast
Light rain, Fog, Overcast
 Wind from calm
Wind: Calm
Temperature: 37°F , 3°C
Dew Point: 37°F , 3°C
Humidity: 100%
Barometer: 29.86 inHg , 1011.2 hPa
Summary: Light rain, Fog
Visibility: 1/4 mile , 2 km
Cloud details: 100 ft
2017/09/21 13:56 KSMP 211356Z AUTO 00000KT 1/4SM -RA FG VV001 03/03 A2986 RMK AO2 RAB54 SLP123 P0000 T00330033